Terminal Aerodrome Forecast
Issued by NWS Lake Charles, LA

Home | Current Version | Previous Version | Text Only | Print | Product List | Glossary On
Versions: 1 2 3 4 5 6 7 8 9 10 11 12 13
000
FTUS44 KLCH 281100
TAFLFT
TAF
KLFT 281120Z 2812/2912 34008KT P6SM VCSH BKN008 OVC040
      TEMPO 2812/2815 6SM -SHRA OVC007
     FM282000 36008KT 6SM -SHRA OVC007
      TEMPO 2900/2904 4SM SHRA OVC004
     FM290600 01004KT 4SM BR OVC003=

USA.gov is the U.S. government's official web portal to all federal, state and local government web resources and services.